createdAt,value
2022-11-05T00:00:07.248Z,101179.63
2022-11-05T00:05:28.407Z,101177.84
2022-11-05T00:10:32.602Z,101173.75
2022-11-05T00:15:53.958Z,101173.56
2022-11-05T00:20:56.619Z,101093.81
2022-11-05T00:26:01.088Z,101190.81
2022-11-05T00:31:09.543Z,101199.75
2022-11-05T00:36:12.421Z,101210.56
2022-11-05T00:41:14.957Z,101220.28
2022-11-05T00:46:18.809Z,101217.31
2022-11-05T00:51:21.351Z,101213.31
2022-11-05T00:56:24.408Z,101214.81
2022-11-05T01:01:28.383Z,101213.97
2022-11-05T01:06:31.064Z,101217.22
2022-11-05T01:11:37.086Z,101223.50
2022-11-05T01:16:41.749Z,101236.28
2022-11-05T01:21:44.326Z,101241.88
2022-11-05T01:26:46.867Z,101247.75
2022-11-05T01:31:51.064Z,101263.16
2022-11-05T01:36:53.703Z,101257.84
2022-11-05T01:41:56.363Z,101266.25
2022-11-05T01:47:00.605Z,101262.66
2022-11-05T01:52:05.633Z,101270.50
2022-11-05T01:57:11.553Z,101271.88
2022-11-05T02:02:15.672Z,101274.66
2022-11-05T02:07:19.283Z,101291.38
2022-11-05T02:12:23.863Z,101280.91
2022-11-05T02:17:41.023Z,101278.72
2022-11-05T02:23:13.721Z,101279.59
2022-11-05T02:28:37.330Z,101291.25
2022-11-05T02:33:49.202Z,101286.50
2022-11-05T02:38:59.513Z,101291.78
2022-11-05T02:44:15.295Z,101282.47
2022-11-05T02:49:31.930Z,101290.78
2022-11-05T02:54:39.239Z,101287.84
2022-11-05T02:59:41.741Z,101273.38
2022-11-05T03:04:46.083Z,101286.22
2022-11-05T03:10:15.779Z,101272.22
2022-11-05T03:15:31.542Z,101276.25
2022-11-05T03:20:40.162Z,101275.28
2022-11-05T03:25:46.876Z,101276.63
2022-11-05T03:30:52.259Z,101282.47
2022-11-05T03:35:59.915Z,101292.84
2022-11-05T03:41:07.429Z,101288.81
2022-11-05T03:46:13.339Z,101295.88
2022-11-05T03:51:30.647Z,101303.88
2022-11-05T03:56:38.369Z,101307.69
2022-11-05T04:01:42.911Z,101302.47
2022-11-05T04:07:04.519Z,101308.34
2022-11-05T04:12:36.282Z,101316.03
2022-11-05T04:17:38.817Z,101319.69
2022-11-05T04:23:00.015Z,101331.03
2022-11-05T04:28:02.570Z,101325.97
2022-11-05T04:33:07.046Z,101327.25
2022-11-05T04:38:12.830Z,101325.31
2022-11-05T04:43:17.983Z,101339.16
2022-11-05T04:48:20.857Z,101336.59
2022-11-05T04:53:25.337Z,101334.38
2022-11-05T04:58:27.833Z,101338.81
2022-11-05T05:03:30.334Z,101334.88
2022-11-05T05:08:34.690Z,101288.50
2022-11-05T05:13:37.258Z,101341.63
2022-11-05T05:18:43.609Z,101338.72
2022-11-05T05:23:49.846Z,101354.94
2022-11-05T05:28:53.093Z,101358.28
2022-11-05T05:33:56.213Z,101354.72
2022-11-05T05:39:00.095Z,101362.84
2022-11-05T05:44:02.720Z,101364.97
2022-11-05T05:49:12.083Z,101367.34
2022-11-05T05:54:16.846Z,101368.44
2022-11-05T05:59:19.421Z,101375.78
2022-11-05T06:04:22.127Z,101373.03
2022-11-05T06:09:26.053Z,101370.44
2022-11-05T06:14:28.589Z,101385.38
2022-11-05T06:19:31.104Z,101386.47
2022-11-05T06:24:34.960Z,101391.25
2022-11-05T06:29:37.508Z,101395.22
2022-11-05T06:34:40.032Z,101402.78
2022-11-05T06:39:44.330Z,101412.81
2022-11-05T06:44:46.953Z,101415.69
2022-11-05T06:49:49.590Z,101427.69
2022-11-05T06:54:53.465Z,101430.47
2022-11-05T07:00:01.334Z,101434.22
2022-11-05T07:05:07.177Z,101441.59
2022-11-05T07:10:14.350Z,101443.78
2022-11-05T07:15:17.403Z,101445.47
2022-11-05T07:20:19.934Z,101453.63
2022-11-05T07:25:23.918Z,101458.84
2022-11-05T07:30:26.911Z,101463.53
2022-11-05T07:35:29.907Z,101474.91
2022-11-05T07:40:34.178Z,101479.06
2022-11-05T07:45:36.736Z,101481.13
2022-11-05T07:50:39.341Z,101484.91
2022-11-05T07:55:45.792Z,101481.50
2022-11-05T08:00:48.514Z,101485.13
2022-11-05T08:05:51.344Z,101480.81
2022-11-05T08:10:55.258Z,101481.97
2022-11-05T08:15:58.257Z,101477.13
2022-11-05T08:21:02.410Z,101480.63
2022-11-05T08:26:06.690Z,101480.63
2022-11-05T08:31:10.114Z,101472.56
2022-11-05T08:36:12.773Z,101476.28
2022-11-05T08:41:17.471Z,101484.75
2022-11-05T08:46:20.028Z,101487.69
2022-11-05T08:51:22.602Z,101494.94
2022-11-05T08:56:26.865Z,101492.44
2022-11-05T09:01:29.667Z,101494.06
2022-11-05T09:06:32.324Z,101496.00
2022-11-05T09:12:05.205Z,101498.75
2022-11-05T09:16:58.752Z,101512.44
2022-11-05T09:22:01.304Z,101515.41
2022-11-05T09:27:05.511Z,101519.63
2022-11-05T09:32:08.222Z,101518.00
2022-11-05T09:37:10.946Z,101519.56
2022-11-05T09:42:18.784Z,101520.50
2022-11-05T09:47:25.231Z,101515.34
2022-11-05T09:52:30.427Z,101518.69
2022-11-05T09:57:44.578Z,101521.69
2022-11-05T10:02:51.604Z,101529.56
2022-11-05T10:07:58.338Z,101525.22
2022-11-05T10:13:08.748Z,101518.81
2022-11-05T10:18:17.364Z,101515.81
2022-11-05T10:23:22.360Z,101513.34
2022-11-05T10:28:27.900Z,101523.28
2022-11-05T10:33:34.362Z,101518.00
2022-11-05T10:38:37.104Z,101533.97
2022-11-05T10:43:48.457Z,101541.56
2022-11-05T10:49:04.588Z,101531.22
2022-11-05T10:54:14.656Z,101528.59
2022-11-05T10:59:24.212Z,101483.31
2022-11-05T11:04:32.349Z,101527.19
2022-11-05T11:09:39.835Z,101543.78
2022-11-05T11:14:49.550Z,101530.22
2022-11-05T11:19:53.481Z,101526.44
2022-11-05T11:24:56.022Z,101544.06
2022-11-05T11:30:02.134Z,101536.69
2022-11-05T11:35:06.621Z,101534.53
2022-11-05T11:40:17.172Z,101507.84
2022-11-05T11:45:28.381Z,101490.81
2022-11-05T11:50:37.697Z,101533.31
2022-11-05T11:55:40.572Z,101535.75
2022-11-05T12:00:51.073Z,101502.91
2022-11-05T12:06:02.577Z,101519.59
2022-11-05T12:11:11.773Z,101434.53
2022-11-05T12:16:25.661Z,101536.22
2022-11-05T12:21:53.427Z,101510.16
2022-11-05T12:27:09.371Z,101533.50
2022-11-05T12:32:34.528Z,101521.44
2022-11-05T12:37:47.397Z,101521.06
2022-11-05T12:43:07.744Z,101499.09
2022-11-05T12:48:37.258Z,101510.09
2022-11-05T12:53:52.902Z,101498.88
2022-11-05T12:59:01.818Z,101508.75
2022-11-05T13:04:14.455Z,101519.25
2022-11-05T13:09:22.289Z,101529.97
2022-11-05T13:14:29.707Z,101513.84
2022-11-05T13:19:37.625Z,101513.28
2022-11-05T13:24:54.408Z,101488.94
2022-11-05T13:30:04.092Z,101498.28
2022-11-05T13:35:16.827Z,101478.78
2022-11-05T13:40:25.426Z,101472.81
2022-11-05T13:46:05.708Z,101466.28
2022-11-05T13:51:39.485Z,101471.59
2022-11-05T13:56:56.959Z,101464.66
2022-11-05T14:02:02.475Z,101466.84
2022-11-05T14:07:12.551Z,101472.06
2022-11-05T14:12:23.669Z,101454.13
2022-11-05T14:17:33.949Z,101452.16
2022-11-05T14:22:42.557Z,101453.31
2022-11-05T14:27:47.751Z,101436.81
2022-11-05T14:32:50.899Z,101428.00
2022-11-05T14:37:56.711Z,101438.03
2022-11-05T14:43:02.046Z,101410.66
2022-11-05T14:48:07.759Z,101439.19
2022-11-05T14:53:29.546Z,101445.91
2022-11-05T14:58:35.291Z,101436.13
2022-11-05T15:04:01.713Z,101441.34
2022-11-05T15:09:22.595Z,101429.25
2022-11-05T15:14:33.194Z,101435.38
2022-11-05T15:19:38.686Z,101434.63
2022-11-05T15:24:43.708Z,101419.06
2022-11-05T15:29:46.309Z,101425.72
2022-11-05T15:34:53.135Z,101433.47
2022-11-05T15:39:57.078Z,101431.78
2022-11-05T15:45:00.620Z,101424.03
2022-11-05T15:50:13.073Z,101427.03
2022-11-05T15:55:23.786Z,101433.47
2022-11-05T16:00:29.023Z,101406.94
2022-11-05T16:05:34.914Z,101435.47
2022-11-05T16:10:39.995Z,101439.69
2022-11-05T16:15:54.374Z,101439.13
2022-11-05T16:21:05.510Z,101444.78
2022-11-05T16:31:38.097Z,101446.28
2022-11-05T16:36:40.735Z,101440.22
2022-11-05T16:41:46.380Z,101448.28
2022-11-05T16:46:52.056Z,101446.59
2022-11-05T16:51:54.630Z,101433.63
2022-11-05T16:56:57.385Z,101432.69
2022-11-05T17:02:01.607Z,101438.16
2022-11-05T17:07:04.307Z,101440.72
2022-11-05T17:12:07.212Z,101406.31
2022-11-05T17:17:11.688Z,101421.31
2022-11-05T17:22:14.249Z,101426.03
2022-11-05T17:27:16.810Z,101415.13
2022-11-05T17:32:20.717Z,101420.34
2022-11-05T17:37:23.510Z,101424.59
2022-11-05T17:42:26.115Z,101424.09
2022-11-05T17:47:30.784Z,101427.44
2022-11-05T17:52:33.538Z,101425.25
2022-11-05T17:57:36.078Z,101432.19
2022-11-05T18:02:40.288Z,101397.78
2022-11-05T18:07:43.564Z,101456.94
2022-11-05T18:12:46.269Z,101412.88
2022-11-05T18:17:50.188Z,101453.00
2022-11-05T18:22:53.229Z,101453.88
2022-11-05T18:27:55.808Z,101438.09
2022-11-05T18:32:59.759Z,101435.94
2022-11-05T18:38:02.363Z,101434.50
2022-11-05T18:43:05.002Z,101434.22
2022-11-05T18:48:09.347Z,101435.94
2022-11-05T18:53:12.078Z,101427.63
2022-11-05T18:58:15.371Z,101415.28
2022-11-05T19:03:19.402Z,101432.53
2022-11-05T19:08:22.078Z,101439.03
2022-11-05T19:13:25.184Z,101439.63
2022-11-05T19:18:29.859Z,101437.47
2022-11-05T19:23:37.627Z,101423.75
2022-11-05T19:28:46.651Z,101386.16
2022-11-05T19:33:52.219Z,101419.78
2022-11-05T19:38:57.399Z,101415.03
2022-11-05T19:44:01.523Z,101407.28
2022-11-05T19:49:09.721Z,101419.56
2022-11-05T19:54:12.381Z,101426.09
2022-11-05T19:59:14.929Z,101448.88
2022-11-05T20:04:18.811Z,101428.97
2022-11-05T20:09:22.987Z,101358.81
2022-11-05T20:14:26.924Z,101400.91
2022-11-05T20:19:30.858Z,101417.13
2022-11-05T20:24:33.377Z,101421.13
2022-11-05T20:29:36.143Z,101440.41
2022-11-05T20:34:40.287Z,101431.13
2022-11-05T20:39:46.087Z,101097.13
2022-11-05T20:44:53.001Z,101451.44
2022-11-05T20:50:00.002Z,101201.59
2022-11-05T20:55:03.214Z,101447.59
2022-11-05T21:00:07.809Z,101393.47
2022-11-05T21:05:35.148Z,101310.97
2022-11-05T21:10:39.477Z,101296.22
2022-11-05T21:15:48.739Z,101403.13
2022-11-05T21:20:52.998Z,101407.31
2022-11-05T21:25:56.398Z,101409.53
2022-11-05T21:31:02.004Z,101426.53
2022-11-05T21:36:11.528Z,101432.66
2022-11-05T21:41:14.543Z,101432.59
2022-11-05T21:46:17.235Z,101425.84
2022-11-05T21:51:38.704Z,101419.09
2022-11-05T21:56:59.014Z,101402.66
2022-11-05T22:02:05.016Z,101416.84
2022-11-05T22:23:22.332Z,101364.47
2022-11-05T22:28:25.698Z,101352.59
2022-11-05T22:33:28.842Z,101345.09
2022-11-05T22:38:32.774Z,101351.66
2022-11-05T22:43:35.603Z,101366.84
2022-11-05T22:48:39.365Z,101360.50
2022-11-05T22:53:44.495Z,101340.53
2022-11-05T22:58:47.731Z,101347.72
2022-11-05T23:03:52.690Z,101341.06
2022-11-05T23:09:14.407Z,101348.50
2022-11-05T23:14:17.519Z,101343.38
2022-11-05T23:19:37.743Z,101331.25
2022-11-05T23:24:41.790Z,101251.19
2022-11-05T23:29:44.520Z,101337.41
2022-11-05T23:34:47.088Z,101334.34
2022-11-05T23:39:51.145Z,101239.38
2022-11-05T23:45:14.575Z,101316.19
2022-11-05T23:50:17.677Z,101323.19
2022-11-05T23:55:22.012Z,101320.94
